Nikol'Sk, Russia
Current Conditions -  °F | °C
As of 11:00 AM on Friday 19 Dec 2014 (Local Time) from UWGG Reporting Station
Broken Clouds Broken Clouds  
Wind Chill: 26°   Ceiling: 3200
Heat Index: 32°   Visibility: 6mi
Dew Point: 28°   Wind: 7mph
Humidity: 87%   Direction: 170°S
Pressure: 29.8"   Gusts: NA
Location:  59.53°N, 45.47°E
Report Text: UWGG 190800Z 17003MPS 9999 BKN032 00/M02 Q1009 NOSIG 18090050RMK QFE750
Loading
Personal Weather Stations






























Interactive Weather Map New forecast layout! Learn more

10-Day Weather Forecast

Advertisements
Track Severe Weather on mobile